sensor_id;sensor_type;location;lat;lon;timestamp;temperature;humidity
72320;SHT30;60269;52.502;16.732;2023-11-21T00:00:09;5.25;99.99
72320;SHT30;60269;52.502;16.732;2023-11-21T00:04:04;5.22;99.99
72320;SHT30;60269;52.502;16.732;2023-11-21T00:07:40;5.15;99.99
72320;SHT30;60269;52.502;16.732;2023-11-21T00:11:13;5.12;99.99
72320;SHT30;60269;52.502;16.732;2023-11-21T00:14:47;5.18;99.99
72320;SHT30;60269;52.502;16.732;2023-11-21T00:18:19;5.11;99.99
72320;SHT30;60269;52.502;16.732;2023-11-21T00:21:51;5.08;99.99
72320;SHT30;60269;52.502;16.732;2023-11-21T00:25:23;4.99;99.99
72320;SHT30;60269;52.502;16.732;2023-11-21T00:28:56;4.95;99.99
72320;SHT30;60269;52.502;16.732;2023-11-21T00:32:29;4.96;99.99
72320;SHT30;60269;52.502;16.732;2023-11-21T00:36:00;5.00;99.99
72320;SHT30;60269;52.502;16.732;2023-11-21T00:39:33;4.92;99.99
72320;SHT30;60269;52.502;16.732;2023-11-21T00:43:06;4.89;99.99
72320;SHT30;60269;52.502;16.732;2023-11-21T00:46:38;4.89;99.99
72320;SHT30;60269;52.502;16.732;2023-11-21T00:50:11;4.82;99.99
72320;SHT30;60269;52.502;16.732;2023-11-21T00:53:43;4.82;99.99
72320;SHT30;60269;52.502;16.732;2023-11-21T00:57:14;4.82;99.99
72320;SHT30;60269;52.502;16.732;2023-11-21T01:00:47;4.75;99.99
72320;SHT30;60269;52.502;16.732;2023-11-21T01:04:20;4.64;99.99
72320;SHT30;60269;52.502;16.732;2023-11-21T01:07:52;4.61;99.99
72320;SHT30;60269;52.502;16.732;2023-11-21T01:11:24;4.64;99.99
72320;SHT30;60269;52.502;16.732;2023-11-21T01:14:56;4.61;99.99
72320;SHT30;60269;52.502;16.732;2023-11-21T01:18:32;4.64;99.99
72320;SHT30;60269;52.502;16.732;2023-11-21T01:22:04;4.72;99.99
72320;SHT30;60269;52.502;16.732;2023-11-21T01:25:36;4.65;99.99
72320;SHT30;60269;52.502;16.732;2023-11-21T01:29:08;4.61;99.99
72320;SHT30;60269;52.502;16.732;2023-11-21T01:32:40;4.53;99.99
72320;SHT30;60269;52.502;16.732;2023-11-21T01:36:12;4.48;99.99
72320;SHT30;60269;52.502;16.732;2023-11-21T01:39:44;4.46;99.99
72320;SHT30;60269;52.502;16.732;2023-11-21T01:43:17;4.47;99.99
72320;SHT30;60269;52.502;16.732;2023-11-21T01:46:50;4.43;99.99
72320;SHT30;60269;52.502;16.732;2023-11-21T01:50:23;4.37;99.99
72320;SHT30;60269;52.502;16.732;2023-11-21T01:53:56;4.43;99.99
72320;SHT30;60269;52.502;16.732;2023-11-21T01:57:27;4.30;99.99
72320;SHT30;60269;52.502;16.732;2023-11-21T02:01:00;4.30;99.99
72320;SHT30;60269;52.502;16.732;2023-11-21T02:04:32;4.34;99.99
72320;SHT30;60269;52.502;16.732;2023-11-21T02:08:04;4.30;99.99
72320;SHT30;60269;52.502;16.732;2023-11-21T02:11:37;4.27;99.99
72320;SHT30;60269;52.502;16.732;2023-11-21T02:15:12;4.14;99.99
72320;SHT30;60269;52.502;16.732;2023-11-21T02:18:47;4.19;99.99
72320;SHT30;60269;52.502;16.732;2023-11-21T02:22:20;4.03;99.99
72320;SHT30;60269;52.502;16.732;2023-11-21T02:25:54;4.02;99.99
72320;SHT30;60269;52.502;16.732;2023-11-21T02:29:26;3.89;99.99
72320;SHT30;60269;52.502;16.732;2023-11-21T02:33:01;3.90;99.99
72320;SHT30;60269;52.502;16.732;2023-11-21T02:36:34;3.75;99.99
72320;SHT30;60269;52.502;16.732;2023-11-21T02:40:08;3.69;99.99
72320;SHT30;60269;52.502;16.732;2023-11-21T02:43:41;3.67;99.99
72320;SHT30;60269;52.502;16.732;2023-11-21T02:47:14;3.64;99.99
72320;SHT30;60269;52.502;16.732;2023-11-21T02:50:46;3.64;99.99
72320;SHT30;60269;52.502;16.732;2023-11-21T02:54:18;3.54;99.99
72320;SHT30;60269;52.502;16.732;2023-11-21T02:57:51;3.51;99.99
72320;SHT30;60269;52.502;16.732;2023-11-21T03:01:23;3.42;99.99
72320;SHT30;60269;52.502;16.732;2023-11-21T03:04:56;3.31;99.99
72320;SHT30;60269;52.502;16.732;2023-11-21T03:08:28;3.30;99.99
72320;SHT30;60269;52.502;16.732;2023-11-21T03:12:00;3.21;99.99
72320;SHT30;60269;52.502;16.732;2023-11-21T03:15:32;3.13;99.99
72320;SHT30;60269;52.502;16.732;2023-11-21T03:19:04;3.09;99.99
72320;SHT30;60269;52.502;16.732;2023-11-21T03:22:37;3.03;99.99
72320;SHT30;60269;52.502;16.732;2023-11-21T03:26:13;2.99;99.99
72320;SHT30;60269;52.502;16.732;2023-11-21T03:29:45;2.95;99.99
72320;SHT30;60269;52.502;16.732;2023-11-21T03:33:18;2.92;99.99
72320;SHT30;60269;52.502;16.732;2023-11-21T03:36:51;2.91;99.99
72320;SHT30;60269;52.502;16.732;2023-11-21T03:40:24;2.88;99.99
72320;SHT30;60269;52.502;16.732;2023-11-21T03:43:56;2.92;99.99
72320;SHT30;60269;52.502;16.732;2023-11-21T03:47:28;2.82;99.99
72320;SHT30;60269;52.502;16.732;2023-11-21T03:51:00;2.78;99.99
72320;SHT30;60269;52.502;16.732;2023-11-21T03:54:32;2.69;99.99
72320;SHT30;60269;52.502;16.732;2023-11-21T03:58:04;2.66;99.99
72320;SHT30;60269;52.502;16.732;2023-11-21T04:01:36;2.63;99.99
72320;SHT30;60269;52.502;16.732;2023-11-21T04:05:08;2.62;99.99
72320;SHT30;60269;52.502;16.732;2023-11-21T04:08:41;2.59;99.99
72320;SHT30;60269;52.502;16.732;2023-11-21T04:12:13;2.51;99.99
72320;SHT30;60269;52.502;16.732;2023-11-21T04:15:45;2.45;99.99
72320;SHT30;60269;52.502;16.732;2023-11-21T04:19:17;2.44;99.99
72320;SHT30;60269;52.502;16.732;2023-11-21T04:22:49;2.35;99.99
72320;SHT30;60269;52.502;16.732;2023-11-21T04:26:21;2.24;99.99
72320;SHT30;60269;52.502;16.732;2023-11-21T04:29:53;2.23;99.99
72320;SHT30;60269;52.502;16.732;2023-11-21T04:33:25;2.23;99.99
72320;SHT30;60269;52.502;16.732;2023-11-21T04:36:57;2.20;99.99
72320;SHT30;60269;52.502;16.732;2023-11-21T04:40:29;2.21;99.99
72320;SHT30;60269;52.502;16.732;2023-11-21T04:44:01;2.17;99.99
72320;SHT30;60269;52.502;16.732;2023-11-21T04:47:34;2.17;99.99
72320;SHT30;60269;52.502;16.732;2023-11-21T04:51:07;2.07;99.99
72320;SHT30;60269;52.502;16.732;2023-11-21T04:54:39;2.07;99.99
72320;SHT30;60269;52.502;16.732;2023-11-21T04:58:12;2.00;99.99
72320;SHT30;60269;52.502;16.732;2023-11-21T05:01:44;1.92;99.99
72320;SHT30;60269;52.502;16.732;2023-11-21T05:05:16;1.90;99.99
72320;SHT30;60269;52.502;16.732;2023-11-21T05:08:48;1.79;99.99
72320;SHT30;60269;52.502;16.732;2023-11-21T05:12:21;1.76;99.99
72320;SHT30;60269;52.502;16.732;2023-11-21T05:15:58;1.67;99.99
72320;SHT30;60269;52.502;16.732;2023-11-21T05:19:30;1.66;99.99
72320;SHT30;60269;52.502;16.732;2023-11-21T05:23:02;1.70;99.99
72320;SHT30;60269;52.502;16.732;2023-11-21T05:26:34;1.62;99.99
72320;SHT30;60269;52.502;16.732;2023-11-21T05:30:06;1.65;99.99
72320;SHT30;60269;52.502;16.732;2023-11-21T05:33:43;1.54;99.99
72320;SHT30;60269;52.502;16.732;2023-11-21T05:37:15;1.48;99.99
72320;SHT30;60269;52.502;16.732;2023-11-21T05:40:47;1.38;99.99
72320;SHT30;60269;52.502;16.732;2023-11-21T05:44:19;1.38;99.99
72320;SHT30;60269;52.502;16.732;2023-11-21T05:47:52;1.35;99.99
72320;SHT30;60269;52.502;16.732;2023-11-21T05:51:24;1.28;99.99
72320;SHT30;60269;52.502;16.732;2023-11-21T05:54:56;1.23;99.99
72320;SHT30;60269;52.502;16.732;2023-11-21T05:58:28;1.23;99.99
72320;SHT30;60269;52.502;16.732;2023-11-21T06:02:00;1.18;99.99
72320;SHT30;60269;52.502;16.732;2023-11-21T06:05:32;1.14;99.99
72320;SHT30;60269;52.502;16.732;2023-11-21T06:09:05;1.15;99.99
72320;SHT30;60269;52.502;16.732;2023-11-21T06:12:44;1.13;99.99
72320;SHT30;60269;52.502;16.732;2023-11-21T06:16:15;1.14;99.99
72320;SHT30;60269;52.502;16.732;2023-11-21T06:19:50;1.13;99.99
72320;SHT30;60269;52.502;16.732;2023-11-21T06:23:24;1.11;99.99
72320;SHT30;60269;52.502;16.732;2023-11-21T06:26:56;1.08;99.99
72320;SHT30;60269;52.502;16.732;2023-11-21T06:30:28;1.11;99.99
72320;SHT30;60269;52.502;16.732;2023-11-21T06:34:00;1.03;99.99
72320;SHT30;60269;52.502;16.732;2023-11-21T06:37:33;1.04;99.99
72320;SHT30;60269;52.502;16.732;2023-11-21T06:41:05;1.05;99.99
72320;SHT30;60269;52.502;16.732;2023-11-21T06:44:37;1.04;99.99
72320;SHT30;60269;52.502;16.732;2023-11-21T06:48:09;1.05;99.99
72320;SHT30;60269;52.502;16.732;2023-11-21T06:51:42;1.11;99.99
72320;SHT30;60269;52.502;16.732;2023-11-21T06:55:14;1.13;99.99
72320;SHT30;60269;52.502;16.732;2023-11-21T06:58:47;1.14;99.99
72320;SHT30;60269;52.502;16.732;2023-11-21T07:02:19;1.15;99.99
72320;SHT30;60269;52.502;16.732;2023-11-21T07:05:51;1.09;99.99
72320;SHT30;60269;52.502;16.732;2023-11-21T07:09:23;1.13;99.99
72320;SHT30;60269;52.502;16.732;2023-11-21T07:12:56;1.13;99.99
72320;SHT30;60269;52.502;16.732;2023-11-21T07:16:28;1.14;99.99
72320;SHT30;60269;52.502;16.732;2023-11-21T07:20:02;1.11;99.99
72320;SHT30;60269;52.502;16.732;2023-11-21T07:23:35;1.09;99.99
72320;SHT30;60269;52.502;16.732;2023-11-21T07:27:08;1.09;99.99
72320;SHT30;60269;52.502;16.732;2023-11-21T07:30:40;1.07;99.99
72320;SHT30;60269;52.502;16.732;2023-11-21T07:34:12;1.09;99.99
72320;SHT30;60269;52.502;16.732;2023-11-21T07:37:44;1.07;99.99
72320;SHT30;60269;52.502;16.732;2023-11-21T07:41:17;1.11;99.99
72320;SHT30;60269;52.502;16.732;2023-11-21T07:45:02;1.15;99.99
72320;SHT30;60269;52.502;16.732;2023-11-21T07:48:35;1.24;99.99
72320;SHT30;60269;52.502;16.732;2023-11-21T07:52:07;1.18;99.99
72320;SHT30;60269;52.502;16.732;2023-11-21T07:55:38;1.21;99.99
72320;SHT30;60269;52.502;16.732;2023-11-21T07:59:11;1.17;99.99
72320;SHT30;60269;52.502;16.732;2023-11-21T08:02:43;1.08;99.99
72320;SHT30;60269;52.502;16.732;2023-11-21T08:06:18;1.00;99.99
72320;SHT30;60269;52.502;16.732;2023-11-21T08:09:50;0.93;99.99
72320;SHT30;60269;52.502;16.732;2023-11-21T08:13:23;0.90;99.99
72320;SHT30;60269;52.502;16.732;2023-11-21T08:16:55;1.00;99.99
72320;SHT30;60269;52.502;16.732;2023-11-21T08:20:29;0.98;99.99
72320;SHT30;60269;52.502;16.732;2023-11-21T08:24:01;1.00;99.99
72320;SHT30;60269;52.502;16.732;2023-11-21T08:27:36;1.05;99.99
72320;SHT30;60269;52.502;16.732;2023-11-21T08:31:08;1.03;99.99
72320;SHT30;60269;52.502;16.732;2023-11-21T08:34:41;0.98;99.99
72320;SHT30;60269;52.502;16.732;2023-11-21T08:38:16;0.94;99.99
72320;SHT30;60269;52.502;16.732;2023-11-21T08:41:49;0.91;99.99
72320;SHT30;60269;52.502;16.732;2023-11-21T08:45:21;0.84;99.99
72320;SHT30;60269;52.502;16.732;2023-11-21T08:48:54;0.93;99.99
72320;SHT30;60269;52.502;16.732;2023-11-21T08:52:25;0.88;99.99
72320;SHT30;60269;52.502;16.732;2023-11-21T08:55:58;0.84;99.99
72320;SHT30;60269;52.502;16.732;2023-11-21T08:59:30;0.94;99.99
72320;SHT30;60269;52.502;16.732;2023-11-21T09:03:02;0.94;99.99
72320;SHT30;60269;52.502;16.732;2023-11-21T09:06:35;0.88;99.99
72320;SHT30;60269;52.502;16.732;2023-11-21T09:10:08;0.80;99.99
72320;SHT30;60269;52.502;16.732;2023-11-21T09:13:41;0.73;99.99
72320;SHT30;60269;52.502;16.732;2023-11-21T09:17:13;0.72;99.99
72320;SHT30;60269;52.502;16.732;2023-11-21T09:20:46;0.75;99.99
72320;SHT30;60269;52.502;16.732;2023-11-21T09:24:18;0.84;99.99
72320;SHT30;60269;52.502;16.732;2023-11-21T09:27:50;0.84;99.99
72320;SHT30;60269;52.502;16.732;2023-11-21T09:31:22;0.88;99.99
72320;SHT30;60269;52.502;16.732;2023-11-21T09:34:55;0.86;99.99
72320;SHT30;60269;52.502;16.732;2023-11-21T09:38:31;0.76;99.99
72320;SHT30;60269;52.502;16.732;2023-11-21T09:45:45;0.84;99.99
72320;SHT30;60269;52.502;16.732;2023-11-21T09:49:22;0.90;99.99
72320;SHT30;60269;52.502;16.732;2023-11-21T09:53:09;0.90;99.99
72320;SHT30;60269;52.502;16.732;2023-11-21T09:56:45;0.90;99.99
72320;SHT30;60269;52.502;16.732;2023-11-21T10:00:19;0.83;99.99
72320;SHT30;60269;52.502;16.732;2023-11-21T10:03:52;0.91;99.99
72320;SHT30;60269;52.502;16.732;2023-11-21T10:07:26;0.84;99.99
72320;SHT30;60269;52.502;16.732;2023-11-21T10:10:58;0.76;99.99
72320;SHT30;60269;52.502;16.732;2023-11-21T10:14:32;0.94;99.99
72320;SHT30;60269;52.502;16.732;2023-11-21T10:18:06;0.97;99.99
72320;SHT30;60269;52.502;16.732;2023-11-21T10:21:39;0.86;99.99
72320;SHT30;60269;52.502;16.732;2023-11-21T10:25:12;0.88;99.91
72320;SHT30;60269;52.502;16.732;2023-11-21T10:28:59;0.81;99.99
72320;SHT30;60269;52.502;16.732;2023-11-21T10:32:32;0.88;99.99
72320;SHT30;60269;52.502;16.732;2023-11-21T10:36:06;0.73;99.99
72320;SHT30;60269;52.502;16.732;2023-11-21T10:39:39;0.76;99.99
72320;SHT30;60269;52.502;16.732;2023-11-21T10:43:11;0.81;99.99
72320;SHT30;60269;52.502;16.732;2023-11-21T10:46:46;0.81;99.99
72320;SHT30;60269;52.502;16.732;2023-11-21T10:50:23;0.84;99.76
72320;SHT30;60269;52.502;16.732;2023-11-21T10:53:55;0.86;99.35
72320;SHT30;60269;52.502;16.732;2023-11-21T10:57:29;0.81;99.30
72320;SHT30;60269;52.502;16.732;2023-11-21T11:01:02;0.88;99.78
72320;SHT30;60269;52.502;16.732;2023-11-21T11:04:37;0.93;99.23
72320;SHT30;60269;52.502;16.732;2023-11-21T11:08:12;1.07;99.29
72320;SHT30;60269;52.502;16.732;2023-11-21T11:11:46;0.88;99.58
72320;SHT30;60269;52.502;16.732;2023-11-21T11:15:19;0.87;99.57
72320;SHT30;60269;52.502;16.732;2023-11-21T11:18:51;0.81;99.16
72320;SHT30;60269;52.502;16.732;2023-11-21T11:22:46;0.79;98.91
72320;SHT30;60269;52.502;16.732;2023-11-21T11:26:50;0.69;98.66
72320;SHT30;60269;52.502;16.732;2023-11-21T11:30:52;0.62;99.59
72320;SHT30;60269;52.502;16.732;2023-11-21T11:34:32;0.53;99.64
72320;SHT30;60269;52.502;16.732;2023-11-21T11:38:08;0.50;99.20
72320;SHT30;60269;52.502;16.732;2023-11-21T11:41:43;0.52;99.29
72320;SHT30;60269;52.502;16.732;2023-11-21T11:45:18;0.50;98.64
72320;SHT30;60269;52.502;16.732;2023-11-21T11:49:02;0.42;98.41
72320;SHT30;60269;52.502;16.732;2023-11-21T11:56:33;0.41;97.92
72320;SHT30;60269;52.502;16.732;2023-11-21T12:07:53;0.44;97.28
72320;SHT30;60269;52.502;16.732;2023-11-21T12:11:33;0.46;97.20
72320;SHT30;60269;52.502;16.732;2023-11-21T12:15:07;0.39;96.47
72320;SHT30;60269;52.502;16.732;2023-11-21T12:18:39;0.35;96.72
72320;SHT30;60269;52.502;16.732;2023-11-21T12:22:11;0.32;96.86
72320;SHT30;60269;52.502;16.732;2023-11-21T12:25:44;0.35;97.09
72320;SHT30;60269;52.502;16.732;2023-11-21T12:29:16;0.32;97.72
72320;SHT30;60269;52.502;16.732;2023-11-21T12:32:52;0.32;98.12
72320;SHT30;60269;52.502;16.732;2023-11-21T12:36:25;0.28;98.45
72320;SHT30;60269;52.502;16.732;2023-11-21T12:39:58;0.21;98.94
72320;SHT30;60269;52.502;16.732;2023-11-21T12:43:30;0.19;99.00
72320;SHT30;60269;52.502;16.732;2023-11-21T12:47:05;0.22;99.24
72320;SHT30;60269;52.502;16.732;2023-11-21T12:50:38;0.18;98.33
72320;SHT30;60269;52.502;16.732;2023-11-21T12:54:10;0.12;98.27
72320;SHT30;60269;52.502;16.732;2023-11-21T12:57:45;0.18;98.76
72320;SHT30;60269;52.502;16.732;2023-11-21T13:01:17;0.21;98.88
72320;SHT30;60269;52.502;16.732;2023-11-21T13:04:56;0.19;97.65
72320;SHT30;60269;52.502;16.732;2023-11-21T13:08:30;0.19;97.16
72320;SHT30;60269;52.502;16.732;2023-11-21T13:12:06;0.25;96.80
72320;SHT30;60269;52.502;16.732;2023-11-21T13:15:40;0.29;96.32
72320;SHT30;60269;52.502;16.732;2023-11-21T13:19:15;0.30;95.40
72320;SHT30;60269;52.502;16.732;2023-11-21T13:22:54;0.33;95.38
72320;SHT30;60269;52.502;16.732;2023-11-21T13:26:30;0.41;95.30
72320;SHT30;60269;52.502;16.732;2023-11-21T13:30:05;0.44;94.98
72320;SHT30;60269;52.502;16.732;2023-11-21T13:33:40;0.45;94.25
72320;SHT30;60269;52.502;16.732;2023-11-21T13:37:18;0.49;94.37
72320;SHT30;60269;52.502;16.732;2023-11-21T13:40:53;0.48;94.50
72320;SHT30;60269;52.502;16.732;2023-11-21T13:44:26;0.50;94.33
72320;SHT30;60269;52.502;16.732;2023-11-21T13:48:00;0.46;93.95
72320;SHT30;60269;52.502;16.732;2023-11-21T13:51:33;0.50;94.14
72320;SHT30;60269;52.502;16.732;2023-11-21T13:55:17;0.44;93.39
72320;SHT30;60269;52.502;16.732;2023-11-21T13:58:50;0.42;93.02
72320;SHT30;60269;52.502;16.732;2023-11-21T14:02:26;0.42;92.88
72320;SHT30;60269;52.502;16.732;2023-11-21T14:06:06;0.38;92.65
72320;SHT30;60269;52.502;16.732;2023-11-21T14:09:45;0.38;92.41
72320;SHT30;60269;52.502;16.732;2023-11-21T14:13:19;0.38;92.74
72320;SHT30;60269;52.502;16.732;2023-11-21T14:16:54;0.33;92.83
72320;SHT30;60269;52.502;16.732;2023-11-21T14:20:28;0.29;92.80
72320;SHT30;60269;52.502;16.732;2023-11-21T14:24:02;0.33;93.13
72320;SHT30;60269;52.502;16.732;2023-11-21T14:27:34;0.35;93.80
72320;SHT30;60269;52.502;16.732;2023-11-21T14:31:07;0.35;93.79
72320;SHT30;60269;52.502;16.732;2023-11-21T14:34:44;0.28;93.97
72320;SHT30;60269;52.502;16.732;2023-11-21T14:38:19;0.30;93.69
72320;SHT30;60269;52.502;16.732;2023-11-21T14:41:52;0.29;93.53
72320;SHT30;60269;52.502;16.732;2023-11-21T14:45:25;0.28;93.06
72320;SHT30;60269;52.502;16.732;2023-11-21T14:48:58;0.28;92.58
72320;SHT30;60269;52.502;16.732;2023-11-21T14:52:48;0.28;93.03
72320;SHT30;60269;52.502;16.732;2023-11-21T14:56:34;0.25;93.51
72320;SHT30;60269;52.502;16.732;2023-11-21T15:00:06;0.25;93.53
72320;SHT30;60269;52.502;16.732;2023-11-21T15:03:55;0.19;93.01
72320;SHT30;60269;52.502;16.732;2023-11-21T15:07:27;0.19;93.31
72320;SHT30;60269;52.502;16.732;2023-11-21T15:10:59;0.18;93.15
72320;SHT30;60269;52.502;16.732;2023-11-21T15:14:31;0.18;93.14
72320;SHT30;60269;52.502;16.732;2023-11-21T15:18:03;0.11;93.24
72320;SHT30;60269;52.502;16.732;2023-11-21T15:21:36;0.15;93.18
72320;SHT30;60269;52.502;16.732;2023-11-21T15:25:08;0.09;92.67
72320;SHT30;60269;52.502;16.732;2023-11-21T15:28:42;0.11;92.80
72320;SHT30;60269;52.502;16.732;2023-11-21T15:32:14;0.07;92.70
72320;SHT30;60269;52.502;16.732;2023-11-21T15:35:46;0.05;92.07
72320;SHT30;60269;52.502;16.732;2023-11-21T15:39:18;0.05;92.01
72320;SHT30;60269;52.502;16.732;2023-11-21T15:42:50;0.02;92.39
72320;SHT30;60269;52.502;16.732;2023-11-21T15:46:22;0.04;92.74
72320;SHT30;60269;52.502;16.732;2023-11-21T15:49:55;0.00;92.61
72320;SHT30;60269;52.502;16.732;2023-11-21T15:53:28;0.02;92.84
72320;SHT30;60269;52.502;16.732;2023-11-21T15:57:00;0.01;92.62
72320;SHT30;60269;52.502;16.732;2023-11-21T16:00:32;0.05;93.18
72320;SHT30;60269;52.502;16.732;2023-11-21T16:04:04;0.04;93.35
72320;SHT30;60269;52.502;16.732;2023-11-21T16:07:36;0.04;93.32
72320;SHT30;60269;52.502;16.732;2023-11-21T16:11:11;0.04;92.99
72320;SHT30;60269;52.502;16.732;2023-11-21T16:14:43;0.07;92.55
72320;SHT30;60269;52.502;16.732;2023-11-21T16:18:17;0.05;92.66
72320;SHT30;60269;52.502;16.732;2023-11-21T16:21:51;0.05;92.60
72320;SHT30;60269;52.502;16.732;2023-11-21T16:25:24;0.04;92.48
72320;SHT30;60269;52.502;16.732;2023-11-21T16:28:57;0.08;92.73
72320;SHT30;60269;52.502;16.732;2023-11-21T16:32:29;0.04;91.76
72320;SHT30;60269;52.502;16.732;2023-11-21T16:36:03;0.05;91.68
72320;SHT30;60269;52.502;16.732;2023-11-21T16:39:34;0.01;91.73
72320;SHT30;60269;52.502;16.732;2023-11-21T16:43:09;0.09;92.02
72320;SHT30;60269;52.502;16.732;2023-11-21T16:46:47;0.05;91.81
72320;SHT30;60269;52.502;16.732;2023-11-21T16:50:22;0.04;91.68
72320;SHT30;60269;52.502;16.732;2023-11-21T16:53:54;0.07;91.64
72320;SHT30;60269;52.502;16.732;2023-11-21T16:57:26;0.02;91.93
72320;SHT30;60269;52.502;16.732;2023-11-21T17:00:58;0.01;92.48
72320;SHT30;60269;52.502;16.732;2023-11-21T17:04:30;0.01;91.41
72320;SHT30;60269;52.502;16.732;2023-11-21T17:08:02;0.01;91.33
72320;SHT30;60269;52.502;16.732;2023-11-21T17:11:34;-0.02;91.23
72320;SHT30;60269;52.502;16.732;2023-11-21T17:15:07;0.01;91.57
72320;SHT30;60269;52.502;16.732;2023-11-21T17:18:43;-0.02;91.64
72320;SHT30;60269;52.502;16.732;2023-11-21T17:22:15;-0.03;91.98
72320;SHT30;60269;52.502;16.732;2023-11-21T17:25:47;0.00;92.03
72320;SHT30;60269;52.502;16.732;2023-11-21T17:29:19;0.01;91.59
72320;SHT30;60269;52.502;16.732;2023-11-21T17:32:51;0.01;92.04
72320;SHT30;60269;52.502;16.732;2023-11-21T17:36:23;-0.03;91.87
72320;SHT30;60269;52.502;16.732;2023-11-21T17:39:56;-0.02;91.20
72320;SHT30;60269;52.502;16.732;2023-11-21T17:43:28;-0.05;90.82
72320;SHT30;60269;52.502;16.732;2023-11-21T17:47:00;-0.09;91.10
72320;SHT30;60269;52.502;16.732;2023-11-21T17:50:33;-0.10;90.53
72320;SHT30;60269;52.502;16.732;2023-11-21T17:54:06;-0.14;90.41
72320;SHT30;60269;52.502;16.732;2023-11-21T17:57:40;-0.19;90.47
72320;SHT30;60269;52.502;16.732;2023-11-21T18:01:12;-0.21;90.47
72320;SHT30;60269;52.502;16.732;2023-11-21T18:04:45;-0.17;89.72
72320;SHT30;60269;52.502;16.732;2023-11-21T18:08:17;-0.23;89.51
72320;SHT30;60269;52.502;16.732;2023-11-21T18:11:49;-0.24;89.48
72320;SHT30;60269;52.502;16.732;2023-11-21T18:15:21;-0.29;89.41
72320;SHT30;60269;52.502;16.732;2023-11-21T18:18:53;-0.33;89.11
72320;SHT30;60269;52.502;16.732;2023-11-21T18:22:25;-0.36;89.28
72320;SHT30;60269;52.502;16.732;2023-11-21T18:25:58;-0.40;90.36
72320;SHT30;60269;52.502;16.732;2023-11-21T18:29:31;-0.41;90.03
72320;SHT30;60269;52.502;16.732;2023-11-21T18:33:04;-0.47;89.88
72320;SHT30;60269;52.502;16.732;2023-11-21T18:36:37;-0.56;89.62
72320;SHT30;60269;52.502;16.732;2023-11-21T18:40:09;-0.58;89.58
72320;SHT30;60269;52.502;16.732;2023-11-21T18:43:41;-0.54;89.54
72320;SHT30;60269;52.502;16.732;2023-11-21T18:47:13;-0.47;89.52
72320;SHT30;60269;52.502;16.732;2023-11-21T18:50:48;-0.40;89.63
72320;SHT30;60269;52.502;16.732;2023-11-21T18:54:23;-0.44;88.59
72320;SHT30;60269;52.502;16.732;2023-11-21T18:57:55;-0.45;88.74
72320;SHT30;60269;52.502;16.732;2023-11-21T19:01:30;-0.48;88.87
72320;SHT30;60269;52.502;16.732;2023-11-21T19:05:03;-0.44;88.80
72320;SHT30;60269;52.502;16.732;2023-11-21T19:08:37;-0.44;87.92
72320;SHT30;60269;52.502;16.732;2023-11-21T19:12:09;-0.44;88.04
72320;SHT30;60269;52.502;16.732;2023-11-21T19:15:42;-0.41;88.10
72320;SHT30;60269;52.502;16.732;2023-11-21T19:19:16;-0.44;87.62
72320;SHT30;60269;52.502;16.732;2023-11-21T19:22:51;-0.47;87.74
72320;SHT30;60269;52.502;16.732;2023-11-21T19:26:23;-0.50;87.66
72320;SHT30;60269;52.502;16.732;2023-11-21T19:29:55;-0.51;88.01
72320;SHT30;60269;52.502;16.732;2023-11-21T19:33:28;-0.53;87.08
72320;SHT30;60269;52.502;16.732;2023-11-21T19:37:00;-0.57;86.60
72320;SHT30;60269;52.502;16.732;2023-11-21T19:40:32;-0.57;86.47
72320;SHT30;60269;52.502;16.732;2023-11-21T19:44:04;-0.60;87.08
72320;SHT30;60269;52.502;16.732;2023-11-21T19:47:36;-0.60;87.02
72320;SHT30;60269;52.502;16.732;2023-11-21T19:51:11;-0.60;87.10
72320;SHT30;60269;52.502;16.732;2023-11-21T19:54:43;-0.58;86.95
72320;SHT30;60269;52.502;16.732;2023-11-21T19:58:16;-0.62;87.85
72320;SHT30;60269;52.502;16.732;2023-11-21T20:01:49;-0.64;87.68
72320;SHT30;60269;52.502;16.732;2023-11-21T20:05:22;-0.58;86.75
72320;SHT30;60269;52.502;16.732;2023-11-21T20:08:54;-0.60;87.35
72320;SHT30;60269;52.502;16.732;2023-11-21T20:12:28;-0.64;86.67
72320;SHT30;60269;52.502;16.732;2023-11-21T20:16:01;-0.62;87.16
72320;SHT30;60269;52.502;16.732;2023-11-21T20:19:33;-0.65;86.75
72320;SHT30;60269;52.502;16.732;2023-11-21T20:23:06;-0.68;86.74
72320;SHT30;60269;52.502;16.732;2023-11-21T20:26:38;-0.68;85.92
72320;SHT30;60269;52.502;16.732;2023-11-21T20:30:13;-0.74;86.57
72320;SHT30;60269;52.502;16.732;2023-11-21T20:33:46;-0.77;86.07
72320;SHT30;60269;52.502;16.732;2023-11-21T20:37:20;-0.84;85.94
72320;SHT30;60269;52.502;16.732;2023-11-21T20:40:52;-0.87;86.49
72320;SHT30;60269;52.502;16.732;2023-11-21T20:44:24;-0.91;86.75
72320;SHT30;60269;52.502;16.732;2023-11-21T20:47:56;-0.88;86.74
72320;SHT30;60269;52.502;16.732;2023-11-21T20:51:31;-0.95;87.00
72320;SHT30;60269;52.502;16.732;2023-11-21T20:55:04;-0.99;87.30
72320;SHT30;60269;52.502;16.732;2023-11-21T20:58:35;-1.12;87.60
72320;SHT30;60269;52.502;16.732;2023-11-21T21:02:08;-1.17;88.04
72320;SHT30;60269;52.502;16.732;2023-11-21T21:05:41;-1.25;88.49
72320;SHT30;60269;52.502;16.732;2023-11-21T21:09:14;-1.21;87.82
72320;SHT30;60269;52.502;16.732;2023-11-21T21:12:45;-1.33;88.02
72320;SHT30;60269;52.502;16.732;2023-11-21T21:16:18;-1.40;88.63
72320;SHT30;60269;52.502;16.732;2023-11-21T21:19:52;-1.46;88.65
72320;SHT30;60269;52.502;16.732;2023-11-21T21:23:24;-1.48;88.99
72320;SHT30;60269;52.502;16.732;2023-11-21T21:26:56;-1.53;88.12
72320;SHT30;60269;52.502;16.732;2023-11-21T21:30:28;-1.54;88.31
72320;SHT30;60269;52.502;16.732;2023-11-21T21:34:00;-1.56;88.46
72320;SHT30;60269;52.502;16.732;2023-11-21T21:37:32;-1.64;88.30
72320;SHT30;60269;52.502;16.732;2023-11-21T21:41:08;-1.66;88.02
72320;SHT30;60269;52.502;16.732;2023-11-21T21:44:43;-1.72;87.95
72320;SHT30;60269;52.502;16.732;2023-11-21T21:48:15;-1.71;87.69
72320;SHT30;60269;52.502;16.732;2023-11-21T21:51:48;-1.67;87.91
72320;SHT30;60269;52.502;16.732;2023-11-21T21:55:20;-1.66;86.93
72320;SHT30;60269;52.502;16.732;2023-11-21T21:58:52;-1.64;86.56
72320;SHT30;60269;52.502;16.732;2023-11-21T22:02:24;-1.60;86.24
72320;SHT30;60269;52.502;16.732;2023-11-21T22:05:56;-1.60;86.78
72320;SHT30;60269;52.502;16.732;2023-11-21T22:09:29;-1.57;86.66
72320;SHT30;60269;52.502;16.732;2023-11-21T22:13:04;-1.56;86.94
72320;SHT30;60269;52.502;16.732;2023-11-21T22:16:36;-1.51;86.53
72320;SHT30;60269;52.502;16.732;2023-11-21T22:20:10;-1.48;86.71
72320;SHT30;60269;52.502;16.732;2023-11-21T22:23:42;-1.46;86.38
72320;SHT30;60269;52.502;16.732;2023-11-21T22:27:14;-1.47;86.05
72320;SHT30;60269;52.502;16.732;2023-11-21T22:30:46;-1.50;86.73
72320;SHT30;60269;52.502;16.732;2023-11-21T22:34:18;-1.54;86.55
72320;SHT30;60269;52.502;16.732;2023-11-21T22:37:51;-1.57;87.09